Santa Barbara, CA

5:29 PM PDT on July 27, 2016 (GMT -0700)
Upper East | | Change Station

Elev 137 ft 34.43 °N, 119.71 °W | Updated 4 minutes ago

Clear
Clear
87.6 °F
Feels Like 91 °F
N
1.2
Wind Variable Wind from South
Gusts 4.3 mph

Today
High -- | Low -- °F
--% Chance of Precip.
Yesterday
High -- | Low -- °F
Precip. -- in
Pressure 29.88 in
Visibility 10.0 miles
Clouds Clear
Heat Index 91 °F
Dew Point 69 °F
Humidity 53%
Rainfall 0.00 in
Snow Depth Not available.
6:06 AM 8:04 PM
Last Quarter, 38% visible
METAR KSBA 272353Z 24009KT 10SM CLR 23/17 A2988 RMK AO2 SLP119 T02280167 10244 20211 56016
Pressure 29.88 in
Visibility 10.0 miles
Clouds Clear
Heat Index 91 °F
Dew Point 69 °F
Humidity 53%
Rainfall 0.00 in
Snow Depth Not available.
6:06 AM 8:04 PM
Last Quarter, 38% visible
METAR KSBA 272353Z 24009KT 10SM CLR 23/17 A2988 RMK AO2 SLP119 T02280167 10244 20211 56016

10-Day Weather Forecast

Almanac

Astronomy

Jul. 27, 2016 Rise Set
Actual Time
Civil Twilight
Nautical Twilight
Astronomical Twilight
Moon
Length of Visible Light
Length of Day
Tomorrow will be .
, % of the Moon is Illuminated

Today's Extremes

State Highs State Lows

Community

WunderPhotos

Upload Photos

1,927,975 photos uploaded!

WunderBlog® & News

Nearby

Air Quality

  Air Quality AQ Index Pollutant
Not available.

Snow Depth

Station Depth Elevation

Earthquake Activity

City Distance Mag. Time & Date
Minimum magnitude displayed is 2.5.

Coastal Water Temperatures

Place Temperature

Stations

Nearby Weather Stations

Station Location Temp. Windchill Dew Point Humidity Wind Precip. Elev Updated Type
                   

Watches & Warnings

There are currently no watches in effect.